Edmonton International Airport

CYEG · Alberta, Canadá

6 de octubre de 2022

Hora Código Tiempo Temp. Visibilidad Cielo nuboso Viento METAR/SPECI
12:00
V
11 °C 20 mi - 170° 170° 13 kt METAR CYEG 061800Z 17013KT 20SM SKC 11/04 A3042 RMK SLP323
11:00
V
9 °C 20 mi - 180° 180° 13 kt METAR CYEG 061700Z 18013KT 20SM SKC 09/03 A3044 RMK SLP333
10:00
V
7 °C 20 mi - 180° 180° 11 kt METAR CYEG 061600Z 18011KT 20SM SKC 07/03 A3044 RMK SLP334
09:00
V
5 °C 20 mi - 170° 170° 9 kt METAR CYEG 061500Z 17009KT 20SM FEW120 05/02 A3044 RMK AC1 AC TR SLP335
08:00
V
3 °C 20 mi - 130° 130° 9 kt METAR CYEG 061400Z 13009KT 20SM FEW120 03/01 A3044 RMK AC1 AC TR ACC ASOCTD SLP336
07:23
V
2 °C 20 mi - 140° 140° 8 kt METAR CYEG 061323Z 14008KT 20SM FEW120 02/01 A3044 RMK AC1 AC TR SLP336
07:00
V
3 °C 20 mi - 130° 130° 10 kt METAR CYEG 061300Z 13010KT 20SM FEW120 03/02 A3044 RMK AC1 SLP336
06:00
V
3 °C 20 mi - 130° 130° 9 kt METAR CYEG 061200Z 13009KT 20SM FEW080 FEW120 03/02 A3044 RMK AC1AC1 SLP337
05:00
V
4 °C 20 mi - 130° 130° 11 kt METAR CYEG 061100Z 13011KT 20SM FEW075 FEW120 04/02 A3045 RMK AC1AC1 SLP337
04:00
V
5 °C 20 mi 7.500 ft 130° 130° 11 kt METAR CYEG 061000Z 13011KT 20SM BKN075 BKN120 05/03 A3046 RMK AC5AC1 SLP337
03:00
V
5 °C 20 mi 8.000 ft 120° 120° 8 kt METAR CYEG 060900Z 12008KT 20SM FEW062 BKN080 05/03 A3047 RMK SC2AC3 SLP339
02:00
V
5 °C 20 mi 8.000 ft 120° 120° 7 kt METAR CYEG 060800Z 12007KT 20SM SCT062 BKN080 05/03 A3046 RMK SC4AC2 SLP339
01:00
V
6 °C 20 mi 6.500 ft 150° 150° 8 kt METAR CYEG 060700Z 15008KT 20SM BKN065 OVC090 06/03 A3047 RMK SC5AC3 SLP342
00:00
V
6 °C 20 mi 6.500 ft 130° 130° 9 kt METAR CYEG 060600Z 13009KT 20SM BKN065 OVC100 06/03 A3048 RMK SC7AC1 SLP345

5 de octubre de 2022

Hora Código Tiempo Temp. Visibilidad Cielo nuboso Viento METAR/SPECI
23:00
V
6 °C 20 mi 6.000 ft 120° 120° 7 kt METAR CYEG 060500Z 12007KT 20SM OVC060 06/04 A3047 RMK SC8 SLP344
22:00
V
6 °C 20 mi 6.700 ft 110° 110° 7 kt METAR CYEG 060400Z 11007KT 20SM BKN067 OVC100 06/04 A3046 RMK AC6AC2 SLP339
21:00
V
7 °C 20 mi 6.700 ft 110° 110° 8 kt METAR CYEG 060300Z 11008KT 20SM BKN067 OVC100 07/05 A3045 RMK AC6AC2 SLP336
20:26
V
7 °C 20 mi 6.500 ft 110° 110° 7 kt METAR CYEG 060226Z 11007KT 060V130 20SM BKN065 OVC100 07/05 A3045 RMK SC6AC2 SLP334
20:00
V
7 °C 20 mi 6.500 ft 110° 110° 7 kt METAR CYEG 060200Z 11007KT 20SM -RA OVC065 07/05 A3044 RMK SC8 SLP332
19:00
V
7 °C 20 mi 6.700 ft 110° 110° 6 kt METAR CYEG 060100Z 11006KT 20SM -RA BKN067 OVC081 07/05 A3043 RMK AC5AC3 SLP326
18:51
V
8 °C 20 mi 6.700 ft 110° 110° 7 kt METAR CYEG 060051Z 11007KT 20SM -RA BKN067 OVC081 08/05 A3043 RMK AC5AC3 SLP326
18:29
V
8 °C 20 mi 7.100 ft 100° 100° 9 kt METAR CYEG 060029Z 10009KT 20SM BKN071 OVC081 08/05 A3042 RMK AC5AC3 SLP322
18:00
V
8 °C 20 mi 7.100 ft 100° 100° 10 kt METAR CYEG 060000Z 10010KT 20SM -RA BKN071 OVC081 08/05 A3041 RMK AC6AC2 SLP319
17:00
V
9 °C 20 mi 6.100 ft 080° 080° 9 kt METAR CYEG 052300Z 08009KT 20SM -RA BKN061 OVC081 09/05 A3040 RMK SC5AC3 SLP315
16:54
V
10 °C 20 mi 8.100 ft 070° 070° 10 kt METAR CYEG 052254Z 07010KT 20SM -RA SCT061 OVC081 10/04 A3040 RMK SC4AC4 SLP315
16:25
V
11 °C 20 mi 8.000 ft 050° 050° 10 kt METAR CYEG 052225Z 05010KT 20SM FEW061 BKN080 BKN100 11/03 A3040 RMK SC2AC4AC1 WSHFT 2212 SLP312
16:00
V
12 °C 20 mi 8.000 ft 110° 110° 10 kt METAR CYEG 052200Z 11010KT 060V120 20SM BKN080 BKN100 12/02 A3039 RMK AC7ACC1 ACC TR SLP307
15:00
V
13 °C 20 mi 24.000 ft 110° 110° 12 kt METAR CYEG 052100Z 11012KT 20SM SCT100 BKN240 13/03 A3036 RMK ACC4CI3 SLP300
14:00
V
11 °C 20 mi 11.000 ft 110° 110° 13 kt METAR CYEG 052000Z 11013KT 20SM SCT075 BKN110 BKN240 11/04 A3035 RMK AC3ACC3CI1 SLP300
13:00
V
10 °C 20 mi 10.000 ft 090° 090° 13 kt METAR CYEG 051900Z 09013KT 20SM SCT075 BKN100 10/04 A3035 RMK AC4AC3 SLP299
12:00
V
9 °C 20 mi 7.500 ft 070° 070° 11 kt METAR CYEG 051800Z 07011KT 20SM BKN075 OVC100 09/03 A3035 RMK AC7AC1 VIRGA SLP302
11:00
V
9 °C 20 mi 7.500 ft 070° 070° 11 - 17 kt METAR CYEG 051700Z 07011G17KT 20SM BKN075 OVC100 09/03 A3033 RMK AC7AC1 VIRGA SLP295
10:00
V
9 °C 20 mi 7.500 ft 080° 080° 11 kt METAR CYEG 051600Z 08011KT 20SM BKN075 OVC100 09/02 A3031 RMK AC5AC3 VIRGA SLP286
09:00
V
9 °C 20 mi 7.500 ft 070° 070° 7 kt METAR CYEG 051500Z 07007KT 20SM OVC075 09/02 A3029 RMK AC8 VIRGA OHD PRESRR SLP280
08:00
V
9 °C 20 mi 8.400 ft 110° 110° 7 kt METAR CYEG 051400Z 11007KT 20SM BKN084 BKN100 09/02 A3027 RMK AC6AC1 SLP270
07:00
V
9 °C 20 mi 13.000 ft 100° 100° 5 kt METAR CYEG 051300Z 10005KT 20SM SCT100 BKN130 BKN240 09/02 A3026 RMK AC3AC2CI1 SLP265
06:00
V
10 °C 20 mi 10.000 ft 090° 090° 8 kt METAR CYEG 051200Z 09008KT 20SM BKN100 BKN220 10/02 A3025 RMK AC5CI2 SLP256
05:00
V
10 °C 20 mi 10.000 ft 100° 100° 8 kt METAR CYEG 051100Z 10008KT 20SM BKN100 BKN210 10/02 A3023 RMK AC5CI2 VIRGA DIST N SLP249
04:00
V
10 °C 20 mi 9.600 ft 100° 100° 8 kt METAR CYEG 051000Z 10008KT 20SM BKN096 BKN240 10/02 A3022 RMK AC6CI1 SLP243
03:00
V
7 °C 20 mi 9.600 ft Var Var 2 kt METAR CYEG 050900Z VRB02KT 20SM BKN096 BKN180 BKN210 07/02 A3021 RMK AC5AC1CI1 SLP243
02:00
V
5 °C 20 mi 10.000 ft 040° 040° 3 kt METAR CYEG 050800Z 04003KT 350V080 20SM BKN100 BKN200 05/01 A3021 RMK AC5CI1 SLP243
01:00
V
6 °C 20 mi 11.000 ft Var 000° 0 kt METAR CYEG 050700Z 00000KT 20SM BKN110 BKN210 06/00 A3021 RMK AC5CI1 SLP245
00:00
V
5 °C 20 mi 21.000 ft Var 000° 0 kt METAR CYEG 050600Z 00000KT 20SM FEW120 BKN210 05/00 A3021 RMK AC1CI6 SLP245

4 de octubre de 2022

Hora Código Tiempo Temp. Visibilidad Cielo nuboso Viento METAR/SPECI
23:00
V
7 °C 20 mi 22.000 ft 210° 210° 3 kt METAR CYEG 050500Z 21003KT 20SM FEW180 BKN220 07/01 A3019 RMK AC1CI6 SLP240
22:00
V
7 °C 20 mi 23.000 ft Var Var 2 kt METAR CYEG 050400Z VRB02KT 20SM FEW190 BKN230 07/01 A3017 RMK AC1CI6 SLP235
21:00
V
7 °C 20 mi 22.000 ft 220° 220° 3 kt METAR CYEG 050300Z 22003KT 20SM FEW190 BKN220 07/01 A3016 RMK AC1CI6 SLP234
20:00
V
12 °C 20 mi 24.000 ft 360° 360° 4 kt METAR CYEG 050200Z 36004KT 20SM FEW180 BKN240 12/00 A3014 RMK AC1CI6 CC ASOCTD SLP228
19:00
V
13 °C 20 mi 25.000 ft 360° 360° 7 kt METAR CYEG 050100Z 36007KT 20SM FEW120 BKN250 13/01 A3013 RMK AC1CI6 SLP223 DENSITY ALT 2500FT
18:00
V
17 °C 20 mi 25.000 ft 340° 340° 7 kt METAR CYEG 050000Z 34007KT 20SM FEW120 BKN250 17/01 A3012 RMK AC1CI7 AC TR SLP218 DENSITY ALT 3000FT
17:00
V
19 °C 20 mi 25.000 ft 340° 340° 8 kt METAR CYEG 042300Z 34008KT 20SM BKN250 19/00 A3011 RMK CI6 SLP211 DENSITY ALT 3300FT
16:00
V
20 °C 20 mi - 350° 350° 7 - 15 kt METAR CYEG 042200Z 35007G15KT 20SM SCT250 20/02 A3011 RMK CI4 SLP208 DENSITY ALT 3300FT
15:00
V
20 °C 15 mi - 320° 320° 9 kt METAR CYEG 042100Z 32009KT 300V360 15SM SCT250 20/02 A3010 RMK CI3 FU SLP205 DENSITY ALT 3300FT
14:00
V
19 °C 12 mi 25.000 ft 340° 340° 7 kt METAR CYEG 042000Z 34007KT 290V030 12SM SCT027 BKN250 19/03 A3010 RMK FU3CI3 SLP205 DENSITY ALT 3300FT
13:00
V
19 °C 15 mi 24.000 ft 350° 350° 9 - 15 kt METAR CYEG 041900Z 35009G15KT 310V020 15SM SCT022 BKN240 19/03 A3010 RMK FU3CI3 SLP204 DENSITY ALT 3200FT
12:00
V
18 °C 20 mi - 330° 330° 10 kt METAR CYEG 041800Z 33010KT 290V360 20SM FEW090 SCT240 18/06 A3010 RMK AC1CI3 SLP204 DENSITY ALT 3100FT
11:00
V
14 °C 20 mi 24.000 ft 300° 300° 7 kt METAR CYEG 041700Z 30007KT 20SM FEW090 BKN240 14/08 A3010 RMK AC1CI5 AC TR CC ASOCTD SLP208 DENSITY ALT 2600FT
10:00
V
12 °C 20 mi 24.000 ft 280° 280° 6 kt METAR CYEG 041600Z 28006KT 20SM BKN240 12/08 A3009 RMK CI5 SLP204 DENSITY ALT 2500FT
09:00
V
8 °C 20 mi 21.000 ft 250° 250° 6 kt METAR CYEG 041500Z 25006KT 20SM FEW090 BKN210 BKN230 08/07 A3008 RMK AC1CI5CC1 AC TR SLP203
Datos más antiguos

Nosotros y terceros seguimos tu comportamiento en Internet en nuestro sitio web con cookies. Si continúas, asumimos que estás de acuerdo con nuestra política de cookies. Más información